Time;durP1;ratioP1;P1;durP2;ratioP2;P2;SDS_P1;SDS_P2;PMS_P1;PMS_P2;Temp;Humidity;BMP_temperature;BMP_pressure;BME280_temperature;BME280_humidity;BME280_pressure;Samples;Min_cycle;Max_cycle;Signal;HPM_P1;HPM_P2
2022/04/24 00:01:45;;;;;;;7.45;6.55;;;;;;;11.09;52.43;100262.75;4987584;28;20470;-66
2022/04/24 00:04:11;;;;;;;7.97;6.50;;;;;;;11.03;52.97;100258.13;4988189;28;20029;-66
2022/04/24 00:06:36;;;;;;;7.40;6.55;;;;;;;11.05;53.12;100261.38;4988995;28;20038;-66
2022/04/24 00:09:02;;;;;;;7.45;6.30;;;;;;;11.08;53.22;100261.13;4983122;28;20066;-66
2022/04/24 00:11:29;;;;;;;8.05;7.25;;;;;;;11.04;52.97;100259.75;4969294;28;20105;-66
2022/04/24 00:13:55;;;;;;;7.20;6.43;;;;;;;11.02;53.00;100250.50;4969482;28;20027;-66
2022/04/24 00:16:20;;;;;;;8.20;7.00;;;;;;;10.98;52.95;100255.13;4967737;28;20031;-66
2022/04/24 00:18:46;;;;;;;8.02;6.95;;;;;;;10.96;53.38;100241.50;4969156;28;20068;-67
2022/04/24 00:21:11;;;;;;;7.75;6.95;;;;;;;10.95;53.56;100239.84;4967394;28;20031;-66
2022/04/24 00:23:36;;;;;;;7.30;6.57;;;;;;;10.88;53.47;100238.78;4982268;28;20050;-65
2022/04/24 00:26:01;;;;;;;8.55;7.25;;;;;;;10.77;54.47;100236.34;5003519;28;20026;-67
2022/04/24 00:28:27;;;;;;;8.48;6.70;;;;;;;10.76;53.68;100237.31;4988096;28;20386;-66
2022/04/24 00:30:52;;;;;;;7.88;7.07;;;;;;;10.79;54.02;100234.44;4988193;28;20022;-66
2022/04/24 00:33:18;;;;;;;7.55;6.75;;;;;;;10.78;53.95;100237.97;4987220;28;20034;-67
2022/04/24 00:35:43;;;;;;;8.15;6.60;;;;;;;10.69;53.79;100229.28;5002952;28;20088;-66
2022/04/24 00:38:09;;;;;;;7.72;6.85;;;;;;;10.65;53.47;100222.72;4989206;28;20045;-66
2022/04/24 00:40:34;;;;;;;7.72;6.68;;;;;;;10.64;54.27;100232.28;4990478;28;20375;-65
2022/04/24 00:42:59;;;;;;;8.40;7.47;;;;;;;10.57;54.13;100226.03;4988200;28;20022;-66
2022/04/24 00:45:25;;;;;;;7.68;6.70;;;;;;;10.58;54.57;100227.66;5002677;28;20554;-66
2022/04/24 00:47:50;;;;;;;7.38;6.68;;;;;;;10.46;55.27;100222.78;4987317;28;20041;-66
2022/04/24 00:50:17;;;;;;;8.60;6.25;;;;;;;10.44;55.14;100235.91;4987669;28;20041;-66
2022/04/24 00:52:43;;;;;;;7.95;7.15;;;;;;;10.34;56.07;100224.72;4986749;28;20035;-66
2022/04/24 00:55:09;;;;;;;8.43;7.13;;;;;;;10.29;56.21;100232.06;4986965;28;20418;-65
2022/04/24 00:57:34;;;;;;;8.18;7.35;;;;;;;10.18;55.75;100224.41;4983417;28;20456;-66
2022/04/24 01:00:00;;;;;;;8.30;7.47;;;;;;;10.19;55.50;100215.69;4967687;28;20433;-66
2022/04/24 01:02:25;;;;;;;8.30;7.47;;;;;;;10.21;55.38;100231.94;4968080;28;20026;-65
2022/04/24 01:04:51;;;;;;;8.70;7.80;;;;;;;10.19;55.42;100228.63;4968248;28;20404;-66
2022/04/24 01:07:16;;;;;;;9.13;8.07;;;;;;;10.07;55.81;100223.59;4967389;28;20026;-66
2022/04/24 01:09:41;;;;;;;8.75;7.80;;;;;;;10.10;55.94;100228.50;4970821;28;20470;-66
2022/04/24 01:12:07;;;;;;;9.23;7.85;;;;;;;10.11;55.78;100235.31;4986529;28;20037;-66
2022/04/24 01:14:34;;;;;;;9.48;8.00;;;;;;;10.02;56.44;100233.53;4987334;28;20034;-66
2022/04/24 01:17:01;;;;;;;10.35;7.95;;;;;;;10.09;56.18;100226.88;4985739;28;20034;-66
2022/04/24 01:19:27;;;;;;;9.35;8.35;;;;;;;9.97;56.17;100227.94;4985014;28;20084;-66
2022/04/24 01:21:54;;;;;;;8.98;8.07;;;;;;;10.00;56.64;100237.22;4987005;28;20034;-65
2022/04/24 01:24:21;;;;;;;9.50;8.57;;;;;;;9.97;56.42;100230.53;4983361;28;20056;-66
2022/04/24 01:26:48;;;;;;;9.30;8.40;;;;;;;9.92;56.22;100230.16;5004680;28;20037;-66
2022/04/24 01:29:14;;;;;;;9.70;8.70;;;;;;;9.96;56.37;100231.50;5002184;28;20026;-65
2022/04/24 01:31:41;;;;;;;9.65;8.65;;;;;;;9.89;56.50;100230.41;4980717;28;20026;-66
2022/04/24 01:34:07;;;;;;;10.10;9.10;;;;;;;9.87;56.72;100234.91;4986356;28;20026;-66
2022/04/24 01:36:32;;;;;;;9.50;8.48;;;;;;;9.78;57.67;100230.53;4986737;28;20246;-65
2022/04/24 01:38:57;;;;;;;9.73;8.73;;;;;;;9.63;57.33;100213.72;4987527;28;20037;-66
2022/04/24 01:41:23;;;;;;;10.20;9.18;;;;;;;9.64;57.75;100230.94;4974555;28;20034;-65
2022/04/24 01:43:48;;;;;;;9.70;8.80;;;;;;;9.65;57.54;100225.63;5002067;28;20033;-66
2022/04/24 01:46:14;;;;;;;10.18;9.18;;;;;;;9.64;57.63;100225.75;4981460;28;20042;-66
2022/04/24 01:48:39;;;;;;;10.20;9.20;;;;;;;9.61;57.75;100226.00;4986703;28;20122;-67
2022/04/24 01:51:07;;;;;;;10.38;9.23;;;;;;;9.61;57.71;100226.81;4987200;28;20534;-66
2022/04/24 01:53:33;;;;;;;10.02;9.02;;;;;;;9.56;57.76;100229.81;5004909;28;20037;-65
2022/04/24 01:56:04;;;;;;;11.00;9.90;;;;;;;9.54;58.50;100231.72;5004718;28;20026;-65
2022/04/24 01:58:30;;;;;;;10.80;9.80;;;;;;;9.54;58.21;100231.72;5006047;28;20038;-66
2022/04/24 02:00:55;;;;;;;10.68;9.68;;;;;;;9.46;58.41;100222.97;4991903;28;20031;-66
2022/04/24 02:03:22;;;;;;;10.63;9.52;;;;;;;9.51;58.70;100231.97;4967325;28;20035;-66
2022/04/24 02:05:47;;;;;;;10.85;9.75;;;;;;;9.50;58.37;100230.34;4988519;28;20165;-66
2022/04/24 02:08:13;;;;;;;10.98;9.88;;;;;;;9.52;58.54;100232.81;4976424;28;20517;-66
2022/04/24 02:10:39;;;;;;;10.80;9.73;;;;;;;9.44;59.24;100224.88;4986410;28;20435;-66
2022/04/24 02:13:04;;;;;;;10.75;9.65;;;;;;;9.48;59.26;100232.25;4986828;28;20117;-66
2022/04/24 02:15:30;;;;;;;11.30;10.10;;;;;;;9.46;59.50;100231.56;4984845;28;20038;-67
2022/04/24 02:17:56;;;;;;;11.52;10.43;;;;;;;9.49;59.34;100233.88;4986232;28;20529;-66
2022/04/24 02:20:22;;;;;;;11.05;9.95;;;;;;;9.45;59.48;100237.69;4985562;28;20415;-66
2022/04/24 02:22:47;;;;;;;11.80;10.60;;;;;;;9.44;60.06;100238.63;4998491;28;20034;-66
2022/04/24 02:25:12;;;;;;;10.95;9.85;;;;;;;9.39;59.64;100238.22;4985889;28;20089;-65
2022/04/24 02:27:38;;;;;;;11.13;10.02;;;;;;;9.44;59.52;100236.06;4986551;28;20050;-65
2022/04/24 02:30:04;;;;;;;12.07;10.88;;;;;;;9.36;60.30;100243.66;4985359;28;20394;-66
2022/04/24 02:32:30;;;;;;;11.52;10.43;;;;;;;9.32;60.32;100232.75;4986372;28;20130;-66
2022/04/24 02:34:55;;;;;;;12.30;11.18;;;;;;;9.36;60.52;100243.66;5006302;28;20434;-66
2022/04/24 02:37:22;;;;;;;11.88;10.55;;;;;;;9.29;60.89;100237.38;5005433;28;20533;-67
2022/04/24 02:39:47;;;;;;;11.85;10.75;;;;;;;9.17;61.69;100243.56;4993365;28;20039;-67
2022/04/24 02:42:13;;;;;;;12.10;10.90;;;;;;;9.19;61.63;100241.69;4982032;28;20027;-66
2022/04/24 02:44:38;;;;;;;12.60;11.30;;;;;;;9.14;61.79;100241.28;4986571;28;20022;-65
2022/04/24 02:47:04;;;;;;;11.98;10.80;;;;;;;8.99;62.44;100231.25;4985523;28;20085;-66
2022/04/24 02:49:29;;;;;;;12.60;11.35;;;;;;;8.95;63.02;100240.25;4964743;28;20527;-66
2022/04/24 02:51:54;;;;;;;12.82;11.52;;;;;;;8.90;63.67;100247.56;4975601;28;20394;-66
2022/04/24 02:54:20;;;;;;;12.57;11.38;;;;;;;8.79;63.52;100234.72;4985266;28;20109;-67
2022/04/24 02:56:45;;;;;;;12.32;11.15;;;;;;;8.74;64.40;100231.69;5001883;28;20061;-66
2022/04/24 02:59:11;;;;;;;12.70;11.50;;;;;;;8.81;64.05;100247.50;4991084;28;20038;-65
2022/04/24 03:01:38;;;;;;;12.75;11.45;;;;;;;8.80;63.98;100251.84;4986065;28;20060;-66
2022/04/24 03:04:04;;;;;;;13.93;12.52;;;;;;;8.77;64.22;100252.09;4984687;28;20030;-66
2022/04/24 03:06:30;;;;;;;13.55;11.70;;;;;;;8.75;64.63;100248.84;4985916;28;20088;-66
2022/04/24 03:08:55;;;;;;;12.95;11.65;;;;;;;8.73;64.68;100250.75;4985521;28;20058;-66
2022/04/24 03:11:20;;;;;;;13.15;11.85;;;;;;;8.70;64.71;100256.16;4983647;28;20030;-66
2022/04/24 03:13:46;;;;;;;13.38;11.63;;;;;;;8.67;64.77;100256.41;4986261;28;20053;-66
2022/04/24 03:16:11;;;;;;;12.48;11.00;;;;;;;8.68;64.51;100250.28;4986108;28;20037;-67
2022/04/24 03:18:36;;;;;;;12.82;11.45;;;;;;;8.64;64.80;100252.31;4985119;28;20030;-66
2022/04/24 03:21:02;;;;;;;12.48;11.18;;;;;;;8.67;65.09;100257.22;4985849;28;20046;-66
2022/04/24 03:23:27;;;;;;;12.93;11.57;;;;;;;8.62;65.36;100261.16;4977336;28;20319;-67
2022/04/24 03:25:53;;;;;;;12.57;11.38;;;;;;;8.58;64.87;100252.00;4966032;28;20294;-66
2022/04/24 03:28:18;;;;;;;12.68;11.43;;;;;;;8.56;65.00;100243.56;4966236;28;20058;-66
2022/04/24 03:30:44;;;;;;;12.93;11.60;;;;;;;8.55;66.24;100249.69;4966553;28;20471;-67
2022/04/24 03:33:10;;;;;;;12.55;11.32;;;;;;;8.54;66.02;100245.44;4977816;28;20021;-66
2022/04/24 03:35:35;;;;;;;13.15;11.43;;;;;;;8.51;65.81;100247.34;5003612;28;20026;-65
2022/04/24 03:38:02;;;;;;;13.38;11.73;;;;;;;8.48;65.90;100242.41;5005187;28;20026;-66
2022/04/24 03:40:27;;;;;;;12.60;11.30;;;;;;;8.45;65.97;100237.50;4982304;28;20074;-67
2022/04/24 03:42:52;;;;;;;12.13;10.93;;;;;;;8.51;65.87;100241.34;4987789;28;20046;-66
2022/04/24 03:45:18;;;;;;;12.35;10.80;;;;;;;8.49;65.41;100246.66;4988973;28;20073;-66
2022/04/24 03:47:43;;;;;;;12.00;10.80;;;;;;;8.44;65.80;100246.19;4989267;28;20344;-66
2022/04/24 03:50:09;;;;;;;10.93;9.82;;;;;;;8.47;65.80;100240.75;4988728;28;20537;-65
2022/04/24 03:52:35;;;;;;;12.20;10.38;;;;;;;8.44;65.65;100241.03;4988735;28;20352;-65
2022/04/24 03:55:00;;;;;;;12.20;10.90;;;;;;;8.39;66.04;100248.34;4990145;28;20069;-65
2022/04/24 03:57:26;;;;;;;11.75;10.50;;;;;;;8.39;66.22;100237.19;4996462;28;20043;-66
2022/04/24 03:59:51;;;;;;;11.48;10.27;;;;;;;8.38;66.43;100257.03;4989014;28;20091;-66
2022/04/24 04:02:17;;;;;;;12.35;10.00;;;;;;;8.34;66.26;100242.69;4970430;28;20026;-66
2022/04/24 04:04:42;;;;;;;14.15;11.15;;;;;;;8.24;66.68;100239.22;4969262;28;20498;-66
2022/04/24 04:07:08;;;;;;;11.70;10.25;;;;;;;8.20;66.27;100236.06;4969241;28;20042;-66
2022/04/24 04:09:34;;;;;;;10.88;9.65;;;;;;;8.23;66.61;100237.56;4967304;28;20062;-66
2022/04/24 04:11:59;;;;;;;11.60;10.40;;;;;;;8.13;66.51;100234.09;4969072;28;20034;-66
2022/04/24 04:14:24;;;;;;;11.77;10.55;;;;;;;8.14;66.37;100230.56;4987460;28;20077;-66
2022/04/24 04:16:50;;;;;;;11.20;9.93;;;;;;;8.09;67.11;100235.31;4988704;28;20414;-65
2022/04/24 04:19:16;;;;;;;12.55;10.38;;;;;;;8.14;66.62;100243.47;4988252;28;20037;-67
2022/04/24 04:21:43;;;;;;;11.38;10.13;;;;;;;8.14;67.01;100246.91;4988353;28;20426;-66
2022/04/24 04:24:09;;;;;;;11.55;10.35;;;;;;;8.14;66.55;100248.63;4987404;28;20439;-66
2022/04/24 04:26:35;;;;;;;12.05;10.15;;;;;;;8.09;67.14;100243.88;4988027;28;20137;-66
2022/04/24 04:29:00;;;;;;;12.32;10.95;;;;;;;8.03;67.42;100240.94;4987927;28;20110;-66
2022/04/24 04:31:26;;;;;;;11.57;10.38;;;;;;;7.98;67.52;100254.25;4988005;28;20037;-66
2022/04/24 04:33:51;;;;;;;11.95;10.63;;;;;;;7.95;67.65;100249.31;4999526;28;20033;-67
2022/04/24 04:36:16;;;;;;;12.43;10.13;;;;;;;7.96;67.20;100250.94;5006151;28;20410;-66
2022/04/24 04:38:42;;;;;;;12.48;10.85;;;;;;;7.93;67.30;100246.84;5007565;28;20197;-66
2022/04/24 04:41:07;;;;;;;12.52;10.25;;;;;;;7.88;67.78;100251.56;4985723;28;20074;-66
2022/04/24 04:43:33;;;;;;;12.18;10.90;;;;;;;7.91;67.92;100253.91;5002103;28;20471;-66
2022/04/24 04:45:58;;;;;;;11.75;10.30;;;;;;;7.87;67.34;100252.50;4988007;28;20030;-66
2022/04/24 04:48:25;;;;;;;11.05;9.60;;;;;;;7.87;67.98;100256.84;4986224;28;20034;-66
2022/04/24 04:50:51;;;;;;;11.95;10.57;;;;;;;7.83;67.89;100260.59;4988377;28;20030;-66
2022/04/24 04:53:16;;;;;;;13.38;10.30;;;;;;;7.81;68.44;100260.72;4985757;28;20038;-65
2022/04/24 04:55:42;;;;;;;13.57;10.10;;;;;;;7.84;68.21;100263.06;4995330;28;20422;-65
2022/04/24 04:58:07;;;;;;;11.48;10.27;;;;;;;7.82;68.22;100275.28;5007379;28;20466;-67
2022/04/24 05:00:32;;;;;;;11.23;9.25;;;;;;;7.81;68.34;100273.66;5007549;28;20033;-65
2022/04/24 05:02:58;;;;;;;12.45;10.13;;;;;;;7.75;67.84;100268.16;5006996;28;20041;-66
2022/04/24 05:05:23;;;;;;;17.05;9.70;;;;;;;7.79;68.41;100285.84;5007072;28;20060;-66
2022/04/24 05:07:48;;;;;;;10.50;9.40;;;;;;;7.67;67.81;100271.31;4989643;28;20050;-67
2022/04/24 05:10:14;;;;;;;12.25;9.05;;;;;;;7.72;68.31;100285.50;4987002;28;20486;-66
2022/04/24 05:12:39;;;;;;;11.35;10.10;;;;;;;7.74;67.83;100287.94;4987318;28;20077;-66
2022/04/24 05:15:07;;;;;;;10.98;9.30;;;;;;;7.73;67.61;100292.28;4969472;28;20379;-65
2022/04/24 05:17:34;;;;;;;11.90;8.97;;;;;;;7.80;68.16;100308.16;4966745;28;20117;-65
2022/04/24 05:19:59;;;;;;;10.60;9.38;;;;;;;7.78;67.92;100304.84;4977947;28;20323;-66
2022/04/24 05:22:25;;;;;;;10.43;9.35;;;;;;;7.79;68.14;100301.31;4986095;28;20026;-67
2022/04/24 05:24:50;;;;;;;11.85;10.18;;;;;;;7.80;67.59;100300.41;4987048;28;20074;-66
2022/04/24 05:27:16;;;;;;;11.40;8.98;;;;;;;7.83;67.34;100307.06;4985592;28;20072;-66
2022/04/24 05:29:41;;;;;;;11.90;9.27;;;;;;;7.84;67.59;100303.56;4987007;28;20435;-67
2022/04/24 05:32:08;;;;;;;10.93;9.00;;;;;;;7.92;66.84;100307.19;4987100;28;20026;-66
2022/04/24 05:34:33;;;;;;;10.73;9.05;;;;;;;7.93;66.55;100313.97;5003977;28;20169;-66
2022/04/24 05:36:58;;;;;;;10.73;9.23;;;;;;;7.94;67.17;100315.63;4995145;28;20121;-65
2022/04/24 05:39:24;;;;;;;10.15;9.05;;;;;;;7.96;67.34;100311.16;4986609;28;20049;-66
2022/04/24 05:41:49;;;;;;;12.02;9.90;;;;;;;7.98;66.42;100322.19;4987484;28;20623;-68
2022/04/24 05:44:14;;;;;;;11.13;8.80;;;;;;;8.02;66.68;100319.34;4986957;28;20285;-65
2022/04/24 05:46:40;;;;;;;10.52;9.45;;;;;;;8.05;66.32;100327.69;4986642;28;20031;-65
2022/04/24 05:49:06;;;;;;;12.07;8.48;;;;;;;8.07;66.93;100319.81;4986716;28;20026;-66
2022/04/24 05:51:31;;;;;;;10.10;9.10;;;;;;;8.10;66.73;100324.75;4986267;28;20570;-66
2022/04/24 05:53:56;;;;;;;11.95;8.93;;;;;;;8.11;66.33;100319.47;4985356;28;20081;-65
2022/04/24 05:56:22;;;;;;;13.20;9.43;;;;;;;8.14;66.63;100323.53;4993374;28;20518;-67
2022/04/24 05:58:47;;;;;;;12.50;9.27;;;;;;;8.13;66.97;100309.00;5006467;28;20076;-66
2022/04/24 06:01:12;;;;;;;10.48;9.38;;;;;;;8.21;66.56;100316.97;5006224;28;20029;-67
2022/04/24 06:03:40;;;;;;;11.27;8.90;;;;;;;8.24;65.98;100321.88;5006317;28;20025;-67
2022/04/24 06:06:06;;;;;;;9.95;8.77;;;;;;;8.29;66.03;100319.75;4972352;28;20019;-66
2022/04/24 06:08:31;;;;;;;9.90;8.77;;;;;;;8.34;65.54;100324.56;4986548;28;20038;-66
2022/04/24 06:10:57;;;;;;;12.80;9.80;;;;;;;8.38;66.00;100328.56;4977449;28;20357;-67
2022/04/24 06:13:22;;;;;;;12.73;8.88;;;;;;;8.44;66.29;100328.91;4966739;28;20023;-65
2022/04/24 06:15:48;;;;;;;9.95;8.57;;;;;;;8.49;64.99;100328.53;4984381;28;20030;-66
2022/04/24 06:18:13;;;;;;;10.98;8.77;;;;;;;8.55;65.13;100329.81;4983104;28;20465;-67
2022/04/24 06:20:39;;;;;;;9.80;8.80;;;;;;;8.55;65.09;100320.28;4970064;28;20041;-65
2022/04/24 06:23:04;;;;;;;11.43;8.20;;;;;;;8.61;64.28;100324.94;4979997;28;20034;-66
2022/04/24 06:25:34;;;;;;;10.90;9.05;;;;;;;8.66;65.24;100327.97;4971511;28;20352;-66
2022/04/24 06:28:01;;;;;;;10.00;8.82;;;;;;;8.75;64.69;100331.56;4966753;28;20069;-65
2022/04/24 06:30:28;;;;;;;11.88;9.23;;;;;;;8.83;64.99;100334.38;4967019;28;20061;-66
2022/04/24 06:32:55;;;;;;;9.77;8.77;;;;;;;8.89;64.74;100333.84;4990157;28;20030;-67
2022/04/24 06:35:21;;;;;;;10.18;9.10;;;;;;;8.94;64.06;100329.09;4983110;28;20114;-66
2022/04/24 06:37:48;;;;;;;10.65;8.50;;;;;;;9.00;64.68;100333.78;4967403;28;20098;-66
2022/04/24 06:40:16;;;;;;;9.80;8.65;;;;;;;9.04;63.80;100321.41;4981563;28;20552;-66
2022/04/24 06:42:51;;;;;;;9.48;8.48;;;;;;;9.14;63.06;100326.66;4985560;28;20034;-66
2022/04/24 06:45:26;;;;;;;10.30;9.20;;;;;;;9.22;64.31;100332.81;5018877;23;20513;-66
2022/04/24 06:47:56;;;;;;;10.30;8.77;;;;;;;9.28;63.50;100336.66;4987793;28;20034;-67
2022/04/24 06:50:22;;;;;;;11.25;8.70;;;;;;;9.29;63.15;100330.53;5006238;28;20416;-67
2022/04/24 06:53:00;;;;;;;9.85;8.23;;;;;;;9.42;62.91;100338.09;5008075;28;20026;-66
2022/04/24 06:55:27;;;;;;;12.68;8.73;;;;;;;9.48;61.96;100340.97;5002567;28;20045;-67
2022/04/24 06:57:53;;;;;;;10.05;8.98;;;;;;;9.54;62.39;100330.09;5005893;28;20056;-67
2022/04/24 07:00:19;;;;;;;10.25;8.38;;;;;;;9.60;61.22;100343.47;5004126;28;20030;-66
2022/04/24 07:02:45;;;;;;;10.63;8.88;;;;;;;9.65;61.79;100336.94;5005576;28;20038;-66
2022/04/24 07:05:11;;;;;;;10.20;9.00;;;;;;;9.78;62.15;100336.72;5013404;28;20317;-67
2022/04/24 07:07:36;;;;;;;9.85;8.85;;;;;;;9.88;61.76;100332.38;5025035;28;20021;-67
2022/04/24 07:10:01;;;;;;;9.70;8.70;;;;;;;9.97;61.75;100344.53;5025254;28;20033;-66
2022/04/24 07:12:27;;;;;;;9.82;8.70;;;;;;;9.99;60.35;100342.63;5008247;28;20502;-66
2022/04/24 07:14:52;;;;;;;10.75;9.30;;;;;;;10.04;61.09;100342.25;5007162;28;20077;-67
2022/04/24 07:17:18;;;;;;;10.02;9.02;;;;;;;10.16;60.03;100348.13;5004689;28;20084;-64
2022/04/24 07:19:43;;;;;;;9.57;8.57;;;;;;;10.18;59.95;100343.63;5009512;28;20080;-64
2022/04/24 07:22:09;;;;;;;10.20;8.52;;;;;;;10.25;59.52;100344.75;5006777;28;20036;-64
2022/04/24 07:24:34;;;;;;;10.70;8.68;;;;;;;10.28;58.84;100353.09;5014304;28;20086;-67
2022/04/24 07:27:00;;;;;;;9.73;8.23;;;;;;;10.31;58.73;100349.38;5008029;28;20021;-66
2022/04/24 07:29:25;;;;;;;9.57;8.45;;;;;;;10.42;59.23;100346.66;5015212;28;20389;-66
2022/04/24 07:31:50;;;;;;;9.55;8.52;;;;;;;10.50;58.55;100354.59;5016404;28;20137;-66
2022/04/24 07:34:16;;;;;;;9.68;8.20;;;;;;;10.50;58.09;100338.22;5018074;28;20033;-66
2022/04/24 07:36:41;;;;;;;9.35;8.27;;;;;;;10.59;57.87;100348.59;5013456;28;20379;-66
2022/04/24 07:39:06;;;;;;;9.73;8.73;;;;;;;10.68;57.46;100356.50;5014768;28;20151;-66
2022/04/24 07:41:32;;;;;;;9.57;8.63;;;;;;;10.75;57.41;100362.78;5009359;28;20120;-67
2022/04/24 07:43:57;;;;;;;10.50;9.40;;;;;;;10.83;57.20;100381.88;5007448;28;20054;-67
2022/04/24 07:46:23;;;;;;;9.60;8.60;;;;;;;10.89;57.19;100364.94;5009384;28;20347;-66
2022/04/24 07:48:49;;;;;;;9.23;8.23;;;;;;;10.98;58.21;100353.75;5009491;28;20029;-67
2022/04/24 07:51:14;;;;;;;9.68;8.65;;;;;;;11.14;57.28;100363.56;5010257;28;20075;-66
2022/04/24 07:53:42;;;;;;;9.48;8.32;;;;;;;11.20;56.88;100362.19;5008077;28;20033;-66
2022/04/24 07:56:08;;;;;;;9.23;8.23;;;;;;;11.24;56.72;100363.50;5012287;28;20033;-67
2022/04/24 07:58:33;;;;;;;9.55;8.55;;;;;;;11.32;56.12;100367.06;5007990;28;20299;-66
2022/04/24 08:00:58;;;;;;;11.82;9.10;;;;;;;11.41;56.99;100365.38;5023549;28;20144;-66
2022/04/24 08:03:24;;;;;;;10.27;8.68;;;;;;;11.43;55.61;100363.47;5008096;28;20029;-68
2022/04/24 08:05:51;;;;;;;10.18;9.18;;;;;;;11.50;56.48;100364.53;5008536;28;20133;-67
2022/04/24 08:08:20;;;;;;;9.60;8.60;;;;;;;11.42;56.56;100341.88;5007306;28;20045;-69
2022/04/24 08:10:57;;;;;;;9.98;8.98;;;;;;;11.65;56.97;100368.31;5007670;28;20033;-66
2022/04/24 08:13:23;;;;;;;10.65;9.00;;;;;;;11.67;54.55;100371.56;5008394;28;20049;-68
2022/04/24 08:15:50;;;;;;;10.50;8.60;;;;;;;11.67;55.06;100366.38;5008086;28;20033;-66
2022/04/24 08:18:16;;;;;;;9.73;8.73;;;;;;;11.83;55.32;100380.56;5039730;28;20030;-66
2022/04/24 08:20:43;;;;;;;12.98;9.27;;;;;;;11.90;55.18;100373.81;5023516;28;20033;-67
2022/04/24 08:23:10;;;;;;;10.32;9.25;;;;;;;12.02;55.74;100375.25;5007235;28;20057;-66
2022/04/24 08:25:36;;;;;;;10.10;8.82;;;;;;;12.03;54.20;100361.28;5007855;28;20117;-66
2022/04/24 08:28:06;;;;;;;10.25;9.25;;;;;;;12.14;54.04;100375.88;5008233;28;20050;-67
2022/04/24 08:30:34;;;;;;;10.40;9.30;;;;;;;12.28;54.18;100383.19;5007437;28;20080;-67
2022/04/24 08:33:00;;;;;;;10.30;9.30;;;;;;;12.29;53.96;100378.81;5008294;28;20025;-68
2022/04/24 08:35:25;;;;;;;10.70;9.57;;;;;;;12.36;55.47;100361.66;5007976;28;20385;-67
2022/04/24 08:37:51;;;;;;;10.48;8.50;;;;;;;12.47;54.31;100374.44;5007826;28;20369;-71
2022/04/24 08:40:18;;;;;;;11.65;9.23;;;;;;;12.52;54.01;100371.38;5001674;28;20053;-67
2022/04/24 08:42:44;;;;;;;9.90;8.90;;;;;;;12.66;54.51;100389.06;4988506;28;20042;-66
2022/04/24 08:45:22;;;;;;;10.30;9.15;;;;;;;12.68;53.10;100376.75;4994985;28;20128;-69
2022/04/24 08:47:47;;;;;;;10.80;9.70;;;;;;;12.77;52.40;100376.63;5000670;28;20072;-67
2022/04/24 08:50:13;;;;;;;11.35;9.00;;;;;;;12.84;53.83;100381.25;4987823;28;20034;-65
2022/04/24 08:52:42;;;;;;;10.20;9.00;;;;;;;12.89;52.79;100386.81;4995391;28;20034;-67
2022/04/24 08:55:07;;;;;;;10.82;9.45;;;;;;;13.01;53.21;100380.41;5007786;28;20064;-67
2022/04/24 08:57:33;;;;;;;11.02;9.60;;;;;;;13.12;53.78;100385.34;5006120;28;20046;-66
2022/04/24 08:59:59;;;;;;;11.70;9.90;;;;;;;13.19;51.62;100386.41;4997337;28;20026;-66
2022/04/24 09:02:25;;;;;;;11.27;9.32;;;;;;;13.29;52.30;100381.09;5007751;28;20042;-66
2022/04/24 09:04:52;;;;;;;10.35;9.10;;;;;;;13.45;53.88;100381.22;5007417;28;20029;-64
2022/04/24 09:07:19;;;;;;;9.85;8.85;;;;;;;13.47;51.83;100384.47;5007229;28;20131;-65
2022/04/24 09:09:49;;;;;;;10.45;9.35;;;;;;;13.54;52.08;100379.47;5005379;28;20427;-66
2022/04/24 09:12:23;;;;;;;10.55;9.45;;;;;;;13.66;51.79;100388.66;5006155;28;20052;-65
2022/04/24 09:14:51;;;;;;;12.95;9.95;;;;;;;13.69;51.05;100383.13;5008331;28;20549;-64
2022/04/24 09:17:17;;;;;;;10.57;9.30;;;;;;;13.76;50.74;100384.16;4997819;28;20026;-65
2022/04/24 09:19:43;;;;;;;10.75;9.65;;;;;;;13.84;50.58;100379.94;5002536;28;20410;-65
2022/04/24 09:22:09;;;;;;;10.75;9.52;;;;;;;13.89;51.07;100388.09;4987341;28;20037;-65
2022/04/24 09:24:40;;;;;;;11.73;10.13;;;;;;;13.96;51.15;100383.88;4985955;28;20464;-65
2022/04/24 09:27:05;;;;;;;10.32;9.32;;;;;;;14.06;50.87;100384.56;4997314;28;20490;-64
2022/04/24 09:29:32;;;;;;;11.98;10.43;;;;;;;14.25;51.58;100384.28;5005412;28;20044;-65
2022/04/24 09:31:57;;;;;;;12.50;10.25;;;;;;;14.34;49.49;100388.56;5008699;28;20026;-65
2022/04/24 09:34:32;;;;;;;11.50;9.88;;;;;;;14.43;49.55;100385.94;5008923;28;20045;-64
2022/04/24 09:37:02;;;;;;;11.27;10.18;;;;;;;14.56;49.60;100387.13;5006591;28;20109;-67
2022/04/24 09:39:29;;;;;;;11.38;10.18;;;;;;;14.56;50.08;100381.09;5006212;28;20048;-65
2022/04/24 09:42:05;;;;;;;10.90;9.80;;;;;;;14.71;50.82;100389.13;5005781;28;20485;-64
2022/04/24 09:44:40;;;;;;;10.48;9.38;;;;;;;14.73;48.30;100385.34;5005848;28;20452;-64
2022/04/24 09:47:07;;;;;;;11.18;9.48;;;;;;;14.80;47.29;100393.38;5004311;28;20037;-66
2022/04/24 09:49:37;;;;;;;10.60;9.40;;;;;;;14.82;47.37;100380.97;4993856;28;20417;-67
2022/04/24 09:52:08;;;;;;;10.68;9.40;;;;;;;14.79;46.71;100379.47;4988628;28;20034;-64
2022/04/24 09:54:35;;;;;;;10.50;9.30;;;;;;;14.82;48.16;100376.56;4990925;28;20022;-65
2022/04/24 09:57:02;;;;;;;10.75;9.65;;;;;;;14.95;48.32;100380.47;5006059;28;20038;-65
2022/04/24 09:59:27;;;;;;;10.98;9.38;;;;;;;15.12;47.53;100387.28;5005107;28;20072;-67
2022/04/24 10:01:53;;;;;;;10.88;9.35;;;;;;;15.12;46.10;100382.06;5005821;28;20041;-66
2022/04/24 10:04:20;;;;;;;10.65;9.55;;;;;;;15.23;47.52;100388.75;5005298;28;20080;-66
2022/04/24 10:06:46;;;;;;;11.80;9.45;;;;;;;15.19;44.93;100398.72;5000762;28;20085;-66
2022/04/24 10:09:13;;;;;;;10.32;9.32;;;;;;;15.17;44.97;100390.22;4985563;28;20037;-66
2022/04/24 10:11:39;;;;;;;10.38;8.75;;;;;;;15.23;44.70;100388.75;4985427;28;20034;-68
2022/04/24 10:14:09;;;;;;;9.70;8.70;;;;;;;15.26;44.94;100389.25;4986091;28;20038;-66
2022/04/24 10:17:07;;;;;;;10.40;9.00;;;;;;;15.35;44.54;100393.47;4990301;28;20284;-66
2022/04/24 10:20:02;;;;;;;9.82;8.82;;;;;;;15.38;45.09;100395.75;5008380;28;20029;-66
2022/04/24 10:22:50;;;;;;;9.70;8.73;;;;;;;15.41;43.99;100405.84;4995199;28;20083;-66
2022/04/24 10:25:16;;;;;;;11.13;9.27;;;;;;;15.41;42.88;100387.56;5006795;28;20018;-66
2022/04/24 10:27:44;;;;;;;12.02;9.05;;;;;;;15.32;42.98;100393.81;5004541;28;20040;-66
2022/04/24 10:30:24;;;;;;;11.17;8.53;;;;;;;15.35;44.43;100382.19;5004807;28;20029;-66
2022/04/24 10:33:11;;;;;;;10.25;8.88;;;;;;;15.49;43.55;100404.22;5004967;28;20069;-67
2022/04/24 10:35:48;;;;;;;9.75;8.55;;;;;;;15.48;44.51;100386.91;5005428;28;20144;-66
2022/04/24 10:38:14;;;;;;;9.10;8.20;;;;;;;15.61;43.70;100397.66;5004963;28;20044;-66
2022/04/24 10:40:39;;;;;;;11.13;8.50;;;;;;;15.66;43.88;100390.16;5004694;28;20092;-66
2022/04/24 10:43:07;;;;;;;9.82;8.43;;;;;;;15.63;43.49;100391.28;4991792;28;20386;-66
2022/04/24 10:45:45;;;;;;;11.05;8.43;;;;;;;15.73;45.10;100395.53;4997415;28;123138;-66
2022/04/24 10:48:14;;;;;;;9.60;8.25;;;;;;;15.83;44.22;100393.53;4985009;28;20038;-66
2022/04/24 10:50:52;;;;;;;9.60;8.27;;;;;;;15.88;43.55;100405.09;5001828;28;20041;-67
2022/04/24 10:53:18;;;;;;;10.02;8.10;;;;;;;15.75;42.31;100390.94;5009329;28;20037;-67
2022/04/24 10:55:43;;;;;;;9.38;7.75;;;;;;;15.78;41.86;100399.25;5009614;28;20038;-67
2022/04/24 10:58:10;;;;;;;10.30;7.93;;;;;;;15.83;41.93;100396.97;5009651;28;20030;-66
2022/04/24 11:00:37;;;;;;;8.52;7.65;;;;;;;15.90;42.65;100397.91;5010024;28;20113;-66
2022/04/24 11:03:08;;;;;;;8.38;7.57;;;;;;;16.02;42.96;100400.16;5003381;28;20030;-66
2022/04/24 11:05:37;;;;;;;8.75;7.30;;;;;;;15.96;43.14;100400.81;5008639;28;20084;-66
2022/04/24 11:08:03;;;;;;;;;;;;;;;16.06;43.69;100394.41;5009617;28;20392;-67
2022/04/24 11:10:29;;;;;;;8.32;7.43;;;;;;;16.07;42.95;100392.59;5011090;28;19913;-67
2022/04/24 11:12:56;;;;;;;8.80;7.53;;;;;;;16.16;43.34;100386.31;5007326;28;20528;-67
2022/04/24 11:15:21;;;;;;;9.30;7.63;;;;;;;16.15;41.93;100395.16;5007525;28;20062;-66
2022/04/24 11:17:47;;;;;;;9.35;7.45;;;;;;;16.11;41.17;100380.78;5005678;28;20110;-66
2022/04/24 11:20:15;;;;;;;8.25;7.03;;;;;;;16.25;43.58;100395.78;4996867;28;20033;-66